Dodge Center, MN

5:50 AM CST on January 26, 2015 (GMT -0600)
Civil Response Firearms Training LLC | Change Station
CLOSE
Current Station
Personal Weather Station
Location: Dodge Center, MN
Elevation: 1227 ft
Nearby Weather Stations

Elev 1227 ft 44.04 °N, 92.86 °W | Updated 14 minutes ago

Light Snow
Light Snow
25.5 °F
Feels Like 14 °F
N
13.0
Wind Variable Wind from SSW

Today
High -- | Low -- °F
--% Chance of Precip.
Yesterday
High -- | Low -- °F
Precip. -- in
7:35 AM 5:13 PM
Waxing Crescent, 42% visible
Pressure 29.74 in
Visibility 2.0 miles
Clouds Mostly Cloudy 500 ft
Mostly Cloudy 2400 ft
Overcast 11000 ft
Windchill 14 °F
Dew Point 25 °F
Humidity 97%
Rainfall 0.00 in
Snow Depth Not available.
UV 0 out of 12
Pollen .10 out of 12
Air Quality Not available.
Flu Activity Not available.
METAR KTOB 261133Z AUTO 19016KT 2SM -SN BKN005 BKN024 OVC110 M03/M03 A2974 RMK AO2

More Conditions Fewer Conditions

Pressure 29.74 in
Visibility 2.0 miles
Clouds Mostly Cloudy 500 ft
Mostly Cloudy 2400 ft
Overcast 11000 ft
Windchill 14 °F
Dew Point 25 °F
Humidity 97%
Rainfall 0.00 in
Snow Depth Not available.
UV 0 out of 12
Pollen .10 out of 12
Air Quality Not available.
Flu Activity Not available.
METAR KTOB 261133Z AUTO 19016KT 2SM -SN BKN005 BKN024 OVC110 M03/M03 A2974 RMK AO2

More Conditions Fewer Conditions

10-Day Weather Forecast

Almanac

Astronomy

Jan. 26, 2015 Rise Set
Actual Time
Civil Twilight
Nautical Twilight
Astronomical Twilight
Moon
Length of Visible Light
Length of Day
Tomorrow will be .
, % of the Moon is Illuminated

Today's Extremes

State Highs State Lows

Community

WunderPhotos

Upload Photos

1,790,172 photos uploaded!

WunderBlogs® & News

Nearby

Air Quality

  Air Quality AQ Index Pollutant
Not available.

Snow Depth

Station Depth Elevation

Earthquake Activity

City Distance Mag. Time & Date
Minimum magnitude displayed is 2.5.

Coastal Water Temperatures

Place Temperature

Nearby Weather Stations